Time;durP1;ratioP1;P1;durP2;ratioP2;P2;SDS_P1;SDS_P2;PMS_P1;PMS_P2;Temp;Humidity;BMP_temperature;BMP_pressure;BME280_temperature;BME280_humidity;BME280_pressure;Samples;Min_cycle;Max_cycle;Signal;HPM_P1;HPM_P2
2023/02/28 00:01:22;;;;;;;0.53;0.53;;;;;;;0.13;82.09;101359.88;5073693;28;20464;-48
2023/02/28 00:03:48;;;;;;;0.50;0.40;;;;;;;0.23;80.71;101346.25;5073634;28;20822;-47
2023/02/28 00:06:15;;;;;;;0.20;0.20;;;;;;;0.24;80.31;101344.53;5073443;28;20538;-48
2023/02/28 00:08:42;;;;;;;0.23;0.20;;;;;;;0.32;81.04;101342.16;5073461;28;20816;-47
2023/02/28 00:11:13;;;;;;;0.57;0.57;;;;;;;0.35;80.75;101347.47;5073655;28;20479;-47
2023/02/28 00:13:42;;;;;;;0.20;0.10;;;;;;;0.43;80.76;101340.75;5062843;28;20465;-47
2023/02/28 00:16:11;;;;;;;0.20;0.20;;;;;;;0.34;81.06;101345.69;5073291;28;20481;-47
2023/02/28 00:18:38;;;;;;;0.70;0.70;;;;;;;0.10;81.04;101349.31;5073391;28;20445;-47
2023/02/28 00:21:05;;;;;;;0.20;0.10;;;;;;;0.08;81.83;101347.50;5073132;28;20473;-47
2023/02/28 00:23:32;;;;;;;0.20;0.10;;;;;;;0.20;81.22;101348.78;5073504;28;20449;-47
2023/02/28 00:25:58;;;;;;;0.30;0.20;;;;;;;-0.05;82.06;101354.09;5072989;28;20577;-46
2023/02/28 00:28:25;;;;;;;0.30;0.30;;;;;;;0.05;81.50;101347.44;5073303;28;20474;-47
2023/02/28 00:30:51;;;;;;;0.30;0.20;;;;;;;0.21;81.18;101345.31;5072979;28;20454;-47
2023/02/28 00:33:18;;;;;;;0.40;0.30;;;;;;;0.13;80.67;101356.38;5072965;28;20859;-48
2023/02/28 00:35:48;;;;;;;0.30;0.20;;;;;;;0.28;81.54;101343.78;5072717;28;20468;-48
2023/02/28 00:38:16;;;;;;;7.50;0.30;;;;;;;0.36;80.68;101346.63;5073147;28;20442;-47
2023/02/28 00:40:42;;;;;;;0.50;0.50;;;;;;;0.09;80.78;101347.56;5073035;28;20446;-48
2023/02/28 00:43:09;;;;;;;0.20;0.10;;;;;;;-0.07;81.86;101355.75;5073027;28;20458;-47
2023/02/28 00:45:35;;;;;;;0.30;0.30;;;;;;;-0.04;81.72;101353.25;5072507;28;20494;-46
2023/02/28 00:48:02;;;;;;;0.27;0.20;;;;;;;-0.11;82.57;101351.28;5072893;28;20446;-47
2023/02/28 00:50:28;;;;;;;0.20;0.20;;;;;;;-0.24;83.27;101341.28;5072604;28;20454;-47
2023/02/28 00:52:55;;;;;;;1.80;0.87;;;;;;;-0.20;83.10;101337.94;5072727;28;20962;-46
2023/02/28 00:55:21;;;;;;;0.30;0.20;;;;;;;-0.15;83.40;101346.78;5072762;28;20524;-46
2023/02/28 00:57:48;;;;;;;0.20;0.10;;;;;;;0.00;82.72;101347.28;5072061;28;20464;-47
2023/02/28 01:00:15;;;;;;;0.40;0.40;;;;;;;0.14;82.45;101339.88;5072754;28;20454;-48
2023/02/28 01:02:41;;;;;;;0.70;0.33;;;;;;;0.09;82.40;101347.56;5072450;28;20533;-48
2023/02/28 01:05:08;;;;;;;0.30;0.20;;;;;;;0.09;81.75;101344.06;5072528;28;20488;-47
2023/02/28 01:07:34;;;;;;;0.57;0.53;;;;;;;0.28;81.71;101349.91;5072575;28;20449;-48
2023/02/28 01:10:01;;;;;;;1.90;1.00;;;;;;;0.20;81.72;101345.28;5072693;28;20528;-47
2023/02/28 01:12:27;;;;;;;0.20;0.20;;;;;;;0.22;81.56;101340.97;5073475;28;21000;-47
2023/02/28 01:14:56;;;;;;;0.53;0.53;;;;;;;0.13;81.51;101340.69;5072596;28;20442;-47
2023/02/28 01:17:22;;;;;;;0.30;0.20;;;;;;;-0.20;83.26;101337.94;5072347;28;20497;-47
2023/02/28 01:19:49;;;;;;;0.30;0.20;;;;;;;-0.05;82.79;101338.41;5072333;28;20453;-46
2023/02/28 01:22:15;;;;;;;0.60;0.33;;;;;;;-0.04;82.46;101342.78;5072522;28;20465;-47
2023/02/28 01:24:42;;;;;;;0.97;0.97;;;;;;;-0.10;82.78;101340.88;5072269;28;20446;-47
2023/02/28 01:27:08;;;;;;;0.20;0.20;;;;;;;-0.50;84.47;101340.44;5054584;28;20511;-46
2023/02/28 01:29:35;;;;;;;0.30;0.20;;;;;;;-0.48;85.44;101339.66;5059059;28;20765;-46
2023/02/28 01:32:01;;;;;;;0.50;0.50;;;;;;;-0.76;86.56;101331.72;5072052;28;20450;-47
2023/02/28 01:34:27;;;;;;;0.20;0.20;;;;;;;-0.81;86.86;101339.41;5072253;28;20970;-46
2023/02/28 01:36:54;;;;;;;0.93;0.30;;;;;;;-0.78;87.48;101338.63;5072213;28;20471;-48
2023/02/28 01:39:21;;;;;;;0.33;0.30;;;;;;;-0.76;87.81;101339.56;5072172;28;20456;-46
2023/02/28 01:41:47;;;;;;;0.20;0.10;;;;;;;-0.77;88.27;101336.06;5072202;28;20446;-47
2023/02/28 01:44:52;;;;;;;0.20;0.20;;;;;;;-0.54;87.56;101335.97;5072278;28;20960;-48
2023/02/28 01:47:18;;;;;;;0.20;0.17;;;;;;;-0.35;87.25;101331.38;5071866;28;20985;-46
2023/02/28 01:49:45;;;;;;;0.77;0.70;;;;;;;-0.15;86.30;101333.72;5072272;28;20445;-46
2023/02/28 01:52:17;;;;;;;0.40;0.40;;;;;;;-0.08;86.96;101327.88;5065544;28;20519;-46
2023/02/28 01:55:06;;;;;;;0.67;0.67;;;;;;;-0.28;86.80;101321.09;5065700;28;20519;-47
2023/02/28 01:57:37;;;;;;;0.30;0.30;;;;;;;-0.33;87.21;101328.81;5072527;28;20446;-47
2023/02/28 02:00:13;;;;;;;0.30;0.20;;;;;;;-0.66;87.98;101332.09;5071891;28;20899;-46
2023/02/28 02:02:45;;;;;;;0.30;0.30;;;;;;;-0.61;88.74;101327.91;5071987;28;20452;-47
2023/02/28 02:05:19;;;;;;;0.53;0.53;;;;;;;-0.63;88.77;101334.81;5058344;28;20478;-46
2023/02/28 02:07:49;;;;;;;0.57;0.57;;;;;;;-0.64;89.37;101321.72;5071673;28;20926;-46
2023/02/28 02:10:18;;;;;;;0.30;0.20;;;;;;;-0.17;89.10;101325.84;5076337;28;20438;-47
2023/02/28 02:12:59;;;;;;;1.17;0.77;;;;;;;-0.26;88.29;101322.06;5075694;28;20951;-48
2023/02/28 02:15:37;;;;;;;0.50;0.50;;;;;;;-0.28;88.99;101315.88;5075712;28;20469;-46
2023/02/28 02:18:24;;;;;;;1.07;1.07;;;;;;;-0.31;89.46;101314.94;5075800;28;20453;-46
2023/02/28 02:21:16;;;;;;;0.30;0.30;;;;;;;-0.12;88.70;101316.44;5075824;28;20828;-47
2023/02/28 02:24:05;;;;;;;0.30;0.30;;;;;;;0.05;88.69;101313.44;5075742;28;20992;-46
2023/02/28 02:26:59;;;;;;;0.60;0.60;;;;;;;-0.05;88.55;101318.38;5075626;28;20490;-46
2023/02/28 02:29:50;;;;;;;0.20;0.20;;;;;;;-0.09;88.74;101313.91;5075333;28;20520;-46
2023/02/28 02:32:46;;;;;;;0.30;0.20;;;;;;;-0.12;90.17;101315.56;5075285;28;20524;-47
2023/02/28 02:35:31;;;;;;;0.73;0.50;;;;;;;0.01;88.85;101309.88;5075261;28;21018;-46
2023/02/28 02:38:09;;;;;;;0.20;0.20;;;;;;;-0.08;89.16;101306.97;5046171;28;20448;-49
2023/02/28 02:40:46;;;;;;;0.30;0.30;;;;;;;0.03;89.55;101307.28;5075196;28;20476;-47
2023/02/28 02:43:28;;;;;;;0.30;0.20;;;;;;;-0.14;90.64;101310.25;5075329;28;20468;-46
2023/02/28 02:46:02;;;;;;;0.30;0.27;;;;;;;-0.14;89.69;101311.97;5062173;28;20494;-46
2023/02/28 02:48:34;;;;;;;0.30;0.20;;;;;;;-0.14;90.59;101312.88;5075094;28;20448;-47
2023/02/28 02:51:11;;;;;;;0.20;0.10;;;;;;;-0.11;90.22;101301.66;5074974;28;20446;-46
2023/02/28 02:53:45;;;;;;;0.73;0.73;;;;;;;-0.20;89.99;101315.31;5075039;28;20448;-46
2023/02/28 02:56:13;;;;;;;1.23;0.60;;;;;;;-0.14;90.19;101309.38;5074751;28;20842;-46
2023/02/28 02:58:43;;;;;;;1.63;0.90;;;;;;;-0.15;90.73;101310.22;5074800;28;20473;-46
2023/02/28 03:01:30;;;;;;;0.83;0.27;;;;;;;-0.19;90.58;101310.97;5075082;28;20506;-46
2023/02/28 03:04:01;;;;;;;0.40;0.33;;;;;;;-0.15;91.69;101313.72;5074589;28;20442;-46
2023/02/28 03:06:27;;;;;;;0.47;0.47;;;;;;;-0.30;90.99;101315.84;5074739;28;20523;-47
2023/02/28 03:08:54;;;;;;;0.20;0.20;;;;;;;-0.22;91.53;101308.25;5074756;28;20491;-46
2023/02/28 03:11:21;;;;;;;0.70;0.70;;;;;;;-0.23;90.96;101303.88;5074592;28;20449;-46
2023/02/28 03:14:22;;;;;;;6.17;2.03;;;;;;;-0.19;91.24;101310.97;5074628;28;20512;-46
2023/02/28 03:17:30;;;;;;;5.30;0.53;;;;;;;-0.14;90.63;101307.63;5074681;28;20827;-47
2023/02/28 03:20:19;;;;;;;0.20;0.20;;;;;;;-0.14;91.44;101298.91;4992036;28;20449;-47
2023/02/28 03:23:08;;;;;;;0.30;0.30;;;;;;;-0.14;91.76;101305.03;5070318;28;20450;-47
2023/02/28 03:25:58;;;;;;;0.60;0.43;;;;;;;-0.19;91.92;101310.97;5063511;28;20635;-47
2023/02/28 03:28:41;;;;;;;0.60;0.40;;;;;;;-0.03;91.24;101302.75;5074360;28;20535;-46
2023/02/28 03:31:37;;;;;;;0.30;0.30;;;;;;;-0.23;90.71;101309.97;5074318;28;20442;-47
2023/02/28 03:34:13;;;;;;;0.30;0.23;;;;;;;-0.16;90.80;101301.47;5074251;28;20863;-48
2023/02/28 03:36:48;;;;;;;0.30;0.20;;;;;;;-0.23;91.78;101303.88;5074170;28;20464;-46
2023/02/28 03:39:26;;;;;;;0.40;0.40;;;;;;;-0.32;91.14;101299.25;5073923;28;20449;-46
2023/02/28 03:41:59;;;;;;;4.63;0.70;;;;;;;-0.26;90.68;101299.44;5074098;28;20450;-46
2023/02/28 03:44:29;;;;;;;0.40;0.40;;;;;;;-0.26;90.61;101302.06;5074145;28;20446;-48
2023/02/28 03:47:04;;;;;;;0.60;0.60;;;;;;;-0.23;90.95;101298.66;5073783;28;20497;-47
2023/02/28 03:49:39;;;;;;;21.13;1.37;;;;;;;-0.29;91.13;101299.31;5073927;28;20823;-46
2023/02/28 03:52:08;;;;;;;0.70;0.70;;;;;;;-0.35;91.30;101297.41;5073711;28;20557;-47
2023/02/28 03:54:41;;;;;;;0.20;0.20;;;;;;;-0.26;90.45;101309.00;5073922;28;20454;-46
2023/02/28 03:57:37;;;;;;;0.80;0.80;;;;;;;-0.30;90.79;101306.28;5073648;28;20492;-46
2023/02/28 04:00:12;;;;;;;0.20;0.20;;;;;;;-0.32;90.22;101307.97;5073504;28;20541;-47
2023/02/28 04:02:39;;;;;;;0.47;0.47;;;;;;;-0.24;90.11;101308.22;5073570;28;20448;-46
2023/02/28 04:05:07;;;;;;;0.30;0.27;;;;;;;-0.31;90.25;101314.06;5073406;28;20448;-47
2023/02/28 04:07:34;;;;;;;0.50;0.50;;;;;;;-0.31;90.26;101309.72;5073357;28;20489;-46
2023/02/28 04:10:00;;;;;;;0.20;0.20;;;;;;;-0.36;90.17;101311.31;5073761;28;20450;-46
2023/02/28 04:12:27;;;;;;;0.57;0.33;;;;;;;-0.36;90.42;101306.09;5073291;28;20799;-47
2023/02/28 04:14:53;;;;;;;0.30;0.20;;;;;;;-0.37;89.55;101306.06;5073680;28;20457;-46
2023/02/28 04:17:20;;;;;;;0.30;0.30;;;;;;;-0.36;89.77;101307.81;5073396;28;20488;-47
2023/02/28 04:19:46;;;;;;;0.30;0.20;;;;;;;-0.33;89.78;101313.13;5073178;28;20970;-47
2023/02/28 04:22:13;;;;;;;0.20;0.10;;;;;;;-0.47;90.02;101315.31;5073347;28;20485;-46
2023/02/28 04:24:42;;;;;;;0.50;0.50;;;;;;;-0.63;90.95;101316.53;5073271;28;20450;-46
2023/02/28 04:27:09;;;;;;;0.30;0.20;;;;;;;-0.66;90.17;101315.56;5073151;28;20857;-47
2023/02/28 04:29:36;;;;;;;0.50;0.40;;;;;;;-0.75;90.55;101318.72;5059749;28;20458;-46
2023/02/28 04:32:03;;;;;;;0.40;0.40;;;;;;;-0.55;90.25;101319.38;5073178;28;20456;-46
2023/02/28 04:34:32;;;;;;;0.40;0.30;;;;;;;-0.64;90.00;101309.53;5073193;28;20476;-46
2023/02/28 04:37:00;;;;;;;0.20;0.10;;;;;;;-0.58;90.50;101315.78;5072913;28;20492;-46
2023/02/28 04:39:43;;;;;;;0.20;0.20;;;;;;;-0.56;90.13;101308.88;5073216;28;21004;-46
2023/02/28 04:42:10;;;;;;;0.97;0.97;;;;;;;-0.58;90.07;101310.56;5072910;28;20536;-46
2023/02/28 04:44:37;;;;;;;0.50;0.50;;;;;;;-0.52;89.97;101310.78;5072862;28;20609;-46
2023/02/28 04:47:03;;;;;;;0.33;0.30;;;;;;;-0.44;89.25;101309.28;5073135;28;20497;-46
2023/02/28 04:49:30;;;;;;;0.40;0.30;;;;;;;-0.52;88.95;101313.41;5072715;28;20667;-47
2023/02/28 04:51:57;;;;;;;0.60;0.40;;;;;;;-0.55;88.70;101313.28;5072459;28;20456;-46
2023/02/28 04:54:24;;;;;;;0.27;0.27;;;;;;;-0.48;89.05;101308.31;5072695;28;20537;-46
2023/02/28 04:56:50;;;;;;;0.30;0.20;;;;;;;-0.60;89.02;101313.13;5072602;28;20518;-49
2023/02/28 04:59:17;;;;;;;0.20;0.20;;;;;;;-0.56;89.15;101312.38;5072714;28;20907;-46
2023/02/28 05:01:48;;;;;;;0.53;0.53;;;;;;;-0.56;88.60;101315.00;5072567;28;20454;-46
2023/02/28 05:04:15;;;;;;;0.37;0.30;;;;;;;-0.67;88.87;101314.66;5072542;28;20446;-46
2023/02/28 05:06:42;;;;;;;0.20;0.20;;;;;;;-0.56;88.94;101307.16;5072480;28;20494;-46
2023/02/28 05:09:11;;;;;;;0.20;0.10;;;;;;;-0.73;89.06;101313.56;5072440;28;20827;-46
2023/02/28 05:11:39;;;;;;;0.60;0.60;;;;;;;-0.73;88.69;101311.84;5072545;28;21011;-47
2023/02/28 05:14:10;;;;;;;0.40;0.20;;;;;;;-0.73;88.88;101322.28;5072625;28;20450;-46
2023/02/28 05:16:37;;;;;;;0.30;0.30;;;;;;;-0.70;88.85;101319.75;5072758;28;20458;-46
2023/02/28 05:19:03;;;;;;;0.20;0.20;;;;;;;-0.55;87.90;101318.50;5072101;28;20450;-49
2023/02/28 05:21:35;;;;;;;1.90;0.77;;;;;;;-0.60;88.05;101323.56;5059439;28;20450;-47
2023/02/28 05:24:04;;;;;;;0.50;0.47;;;;;;;-0.78;88.26;101321.25;5072335;28;20799;-46
2023/02/28 05:26:35;;;;;;;0.40;0.40;;;;;;;-0.82;88.79;101321.06;5072823;28;20490;-47
2023/02/28 05:29:01;;;;;;;1.40;0.63;;;;;;;-0.76;88.82;101321.28;5072550;28;20445;-47
2023/02/28 05:31:28;;;;;;;0.40;0.40;;;;;;;-0.86;88.42;101313.97;5072332;28;20450;-48
2023/02/28 05:33:55;;;;;;;0.30;0.23;;;;;;;-0.77;88.91;101322.13;5072395;28;20449;-46
2023/02/28 05:36:23;;;;;;;0.33;0.33;;;;;;;-0.75;87.66;101320.47;5072404;28;20553;-47
2023/02/28 05:38:50;;;;;;;0.40;0.40;;;;;;;-0.74;88.05;101319.63;5072235;28;20503;-46
2023/02/28 05:41:19;;;;;;;0.77;0.77;;;;;;;-0.75;88.03;101328.28;5072279;28;20499;-46
2023/02/28 05:43:46;;;;;;;0.33;0.23;;;;;;;-0.68;87.56;101325.06;5075701;28;20507;-46
2023/02/28 05:46:13;;;;;;;0.30;0.27;;;;;;;-0.71;87.75;101328.44;5078314;28;20493;-47
2023/02/28 05:48:42;;;;;;;0.33;0.33;;;;;;;-0.75;87.97;101325.69;5078578;28;20445;-47
2023/02/28 05:51:09;;;;;;;0.43;0.43;;;;;;;-0.74;87.80;101330.06;5078644;28;20446;-46
2023/02/28 05:53:36;;;;;;;0.80;0.80;;;;;;;-0.82;87.89;101336.72;5078451;28;20957;-47
2023/02/28 05:56:03;;;;;;;0.30;0.30;;;;;;;-0.74;87.36;101338.78;5078756;28;20524;-47
2023/02/28 05:58:30;;;;;;;0.30;0.30;;;;;;;-0.73;88.00;101327.50;5078599;28;20449;-47
2023/02/28 06:00:58;;;;;;;4.57;0.37;;;;;;;-0.67;87.07;101326.84;5078592;28;20452;-47
2023/02/28 06:03:26;;;;;;;0.30;0.30;;;;;;;-0.70;86.95;101332.81;5078752;28;20445;-46
2023/02/28 06:05:53;;;;;;;0.30;0.30;;;;;;;-0.63;86.74;101336.53;5078294;28;20484;-46
2023/02/28 06:08:19;;;;;;;0.30;0.20;;;;;;;-0.72;86.95;101329.28;5078508;28;20445;-47
2023/02/28 06:10:46;;;;;;;4.10;1.13;;;;;;;-0.74;87.07;101336.16;5060871;28;20477;-47
2023/02/28 06:13:12;;;;;;;5.03;0.50;;;;;;;-0.70;87.14;101329.31;5078139;28;20463;-47
2023/02/28 06:15:39;;;;;;;0.20;0.20;;;;;;;-0.68;86.98;101333.78;5078630;28;20881;-46
2023/02/28 06:18:06;;;;;;;0.20;0.10;;;;;;;-0.77;87.53;101336.06;5078397;28;20442;-46
2023/02/28 06:20:33;;;;;;;0.33;0.33;;;;;;;-0.65;87.61;101335.59;5078608;28;20468;-46
2023/02/28 06:22:59;;;;;;;0.30;0.20;;;;;;;-0.72;87.88;101323.16;5078194;28;20491;-47
2023/02/28 06:25:27;;;;;;;0.40;0.20;;;;;;;-0.80;87.52;101335.97;5078271;28;20469;-47
2023/02/28 06:27:54;;;;;;;0.20;0.20;;;;;;;-0.68;87.31;101335.50;5077937;28;20491;-46
2023/02/28 06:30:26;;;;;;;0.30;0.20;;;;;;;-0.72;87.58;101334.50;5078492;28;20445;-47
2023/02/28 06:32:54;;;;;;;1.07;0.70;;;;;;;-0.68;87.51;101345.94;5066096;28;20499;-46
2023/02/28 06:35:21;;;;;;;0.20;0.20;;;;;;;-0.68;86.94;101335.50;5078180;28;20950;-46
2023/02/28 06:37:48;;;;;;;0.30;0.20;;;;;;;-0.60;86.39;101341.84;5078260;28;20957;-48
2023/02/28 06:40:14;;;;;;;0.30;0.20;;;;;;;-0.48;86.75;101342.25;5078020;28;20449;-46
2023/02/28 06:42:41;;;;;;;0.40;0.33;;;;;;;-0.43;85.53;101338.06;5078304;28;20476;-46
2023/02/28 06:45:09;;;;;;;0.60;0.60;;;;;;;-0.48;85.84;101350.09;5078123;28;20457;-46
2023/02/28 06:47:40;;;;;;;0.30;0.20;;;;;;;-0.41;85.84;101353.78;5078008;28;20858;-47
2023/02/28 06:50:10;;;;;;;0.40;0.20;;;;;;;-0.39;85.57;101355.63;5078028;28;20907;-46
2023/02/28 06:52:37;;;;;;;0.30;0.30;;;;;;;-0.49;86.19;101357.88;5078187;28;20446;-46
2023/02/28 06:55:07;;;;;;;0.20;0.20;;;;;;;-0.41;85.91;101356.38;5075037;28;20450;-47
2023/02/28 06:57:35;;;;;;;0.30;0.20;;;;;;;-0.38;86.22;101362.63;5074833;28;20441;-46
2023/02/28 07:00:08;;;;;;;0.30;0.20;;;;;;;-0.23;86.05;101363.97;5074895;28;20485;-47
2023/02/28 07:02:38;;;;;;;0.80;0.80;;;;;;;-0.22;85.45;101363.13;5074854;28;20533;-46
2023/02/28 07:05:05;;;;;;;0.30;0.20;;;;;;;-0.33;86.22;101375.81;5074722;28;20442;-47
2023/02/28 07:07:32;;;;;;;1.83;1.70;;;;;;;-0.03;84.67;101371.56;5074597;28;20578;-47
2023/02/28 07:09:58;;;;;;;0.53;0.53;;;;;;;0.16;84.01;101372.19;5074731;28;20450;-47
2023/02/28 07:12:25;;;;;;;0.30;0.23;;;;;;;0.24;84.32;101362.81;5074768;28;20897;-46
2023/02/28 07:14:51;;;;;;;0.30;0.23;;;;;;;0.20;84.05;101368.81;5074426;28;20458;-47
2023/02/28 07:17:18;;;;;;;0.20;0.10;;;;;;;0.33;84.26;101365.72;5074474;28;21040;-47
2023/02/28 07:19:44;;;;;;;0.30;0.30;;;;;;;0.22;84.59;101372.34;5074399;28;20446;-46
2023/02/28 07:22:11;;;;;;;0.20;0.10;;;;;;;0.29;84.01;101367.38;5074513;28;20798;-47
2023/02/28 07:24:40;;;;;;;0.23;0.20;;;;;;;0.36;83.10;101354.47;5074541;28;20961;-47
2023/02/28 07:27:07;;;;;;;0.20;0.17;;;;;;;0.48;82.68;101363.56;5074187;28;21040;-48
2023/02/28 07:29:33;;;;;;;0.40;0.40;;;;;;;0.51;83.05;101366.25;5074175;28;20958;-47
2023/02/28 07:32:00;;;;;;;0.40;0.40;;;;;;;0.66;81.92;101367.53;5074278;28;20541;-47
2023/02/28 07:34:26;;;;;;;0.20;0.20;;;;;;;0.69;81.39;101371.16;5074204;28;20482;-47
2023/02/28 07:36:54;;;;;;;0.70;0.60;;;;;;;0.88;80.35;101367.31;5074068;28;20466;-47
2023/02/28 07:39:21;;;;;;;0.30;0.20;;;;;;;0.83;80.70;101364.59;5074241;28;20457;-47
2023/02/28 07:41:48;;;;;;;0.57;0.57;;;;;;;0.90;79.81;101370.88;5074216;28;20459;-47
2023/02/28 07:44:15;;;;;;;0.40;0.40;;;;;;;0.94;80.21;101367.47;5043173;28;20452;-47
2023/02/28 07:46:41;;;;;;;0.40;0.30;;;;;;;1.05;78.91;101368.66;5073696;28;20614;-48
2023/02/28 07:49:08;;;;;;;0.20;0.10;;;;;;;1.20;77.69;101368.19;5073821;28;20564;-47
2023/02/28 07:51:34;;;;;;;0.20;0.10;;;;;;;1.32;77.45;101376.38;5069110;28;20457;-47
2023/02/28 07:54:01;;;;;;;1.90;0.40;;;;;;;1.32;76.15;101375.50;5070797;28;20981;-47
2023/02/28 07:56:27;;;;;;;0.97;0.97;;;;;;;1.45;76.61;101368.00;5073769;28;20477;-46
2023/02/28 07:58:55;;;;;;;0.20;0.20;;;;;;;1.40;75.17;101377.47;5073779;28;20450;-47
2023/02/28 08:01:21;;;;;;;0.20;0.20;;;;;;;1.37;75.52;101380.03;5073674;28;20442;-47
2023/02/28 08:03:48;;;;;;;0.50;0.30;;;;;;;1.41;75.17;101378.38;5073679;28;20799;-47
2023/02/28 08:06:17;;;;;;;3.03;0.63;;;;;;;1.33;74.95;101372.03;5073330;28;20466;-47
2023/02/28 08:08:44;;;;;;;0.53;0.53;;;;;;;1.55;75.21;101382.22;5073720;28;20452;-47
2023/02/28 08:11:11;;;;;;;0.30;0.20;;;;;;;1.77;74.86;101373.16;5073593;28;20476;-47
2023/02/28 08:13:37;;;;;;;0.63;0.63;;;;;;;1.62;74.17;101376.28;5073532;28;20981;-47
2023/02/28 08:16:04;;;;;;;0.30;0.20;;;;;;;1.66;73.35;101380.75;5073076;28;20995;-47
2023/02/28 08:18:33;;;;;;;0.30;0.20;;;;;;;1.75;73.36;101377.47;5073393;28;20453;-46
2023/02/28 08:20:59;;;;;;;0.30;0.20;;;;;;;1.82;74.29;101368.91;5073494;28;20450;-47
2023/02/28 08:23:26;;;;;;;0.37;0.37;;;;;;;1.93;72.96;101377.94;5073415;28;20814;-47
2023/02/28 08:25:56;;;;;;;2.73;0.80;;;;;;;1.91;72.09;101384.84;5073020;28;20994;-47
2023/02/28 08:28:23;;;;;;;0.47;0.47;;;;;;;1.75;71.88;101386.22;5072989;28;21070;-47
2023/02/28 08:30:52;;;;;;;0.53;0.50;;;;;;;1.74;72.22;101378.31;5073055;28;20488;-47
2023/02/28 08:33:19;;;;;;;0.30;0.30;;;;;;;1.73;72.51;101384.41;5073039;28;20959;-47
2023/02/28 08:35:45;;;;;;;0.40;0.40;;;;;;;1.67;72.05;101386.91;5073261;28;20517;-47
2023/02/28 08:38:11;;;;;;;0.40;0.30;;;;;;;1.66;73.47;101386.00;5073273;28;20538;-47
2023/02/28 08:40:38;;;;;;;0.80;0.30;;;;;;;1.63;72.92;101392.88;5072908;28;20880;-47
2023/02/28 08:43:05;;;;;;;0.30;0.20;;;;;;;1.55;71.90;101376.97;5072960;28;20452;-47
2023/02/28 08:45:31;;;;;;;0.83;0.83;;;;;;;1.74;72.50;101392.31;5072798;28;20480;-47
2023/02/28 08:47:58;;;;;;;1.33;0.70;;;;;;;1.88;73.02;101382.16;5072963;28;20635;-47
2023/02/28 08:50:24;;;;;;;0.33;0.30;;;;;;;2.10;72.09;101394.06;5072879;28;20454;-47
2023/02/28 08:52:51;;;;;;;0.20;0.20;;;;;;;1.93;72.20;101391.03;5072797;28;20483;-48
2023/02/28 08:55:17;;;;;;;2.20;0.70;;;;;;;1.96;72.22;101383.25;5072684;28;20534;-47
2023/02/28 08:57:44;;;;;;;0.50;0.40;;;;;;;2.01;72.04;101381.59;5072567;28;20791;-47
2023/02/28 09:00:13;;;;;;;2.80;0.47;;;;;;;2.00;72.05;101392.94;5072504;28;20454;-46
2023/02/28 09:02:42;;;;;;;0.40;0.40;;;;;;;2.03;71.98;101387.75;5073009;28;20438;-47
2023/02/28 09:05:09;;;;;;;0.30;0.30;;;;;;;2.05;72.04;101391.31;5072355;28;20536;-47
2023/02/28 09:07:35;;;;;;;0.30;0.30;;;;;;;2.27;70.53;101394.44;5072553;28;20486;-47
2023/02/28 09:10:02;;;;;;;0.20;0.20;;;;;;;2.10;70.64;101395.78;5072405;28;20446;-46
2023/02/28 09:12:33;;;;;;;0.30;0.30;;;;;;;2.04;70.63;101394.78;5072387;28;20497;-47
2023/02/28 09:14:59;;;;;;;0.40;0.30;;;;;;;2.24;70.04;101397.00;5059194;28;20922;-47
2023/02/28 09:17:26;;;;;;;1.33;0.60;;;;;;;2.27;70.72;101383.94;5072140;28;20466;-49
2023/02/28 09:19:56;;;;;;;0.43;0.43;;;;;;;2.29;69.94;101385.75;5072327;28;20824;-48
2023/02/28 09:22:23;;;;;;;0.37;0.30;;;;;;;2.40;70.38;101380.75;5072803;28;20457;-46
2023/02/28 09:24:50;;;;;;;0.60;0.60;;;;;;;2.58;69.67;101391.63;5054551;28;20883;-47
2023/02/28 09:27:16;;;;;;;3.60;1.13;;;;;;;2.83;70.19;101381.66;5072442;28;20490;-47
2023/02/28 09:29:43;;;;;;;1.27;0.60;;;;;;;2.78;67.91;101389.44;5072758;28;20453;-48
2023/02/28 09:32:09;;;;;;;0.43;0.40;;;;;;;3.06;68.05;101392.63;5072134;28;20485;-47
2023/02/28 09:34:37;;;;;;;1.07;0.60;;;;;;;3.22;67.06;101373.69;5072302;28;20528;-47
2023/02/28 09:37:04;;;;;;;0.30;0.30;;;;;;;3.24;65.86;101375.47;5072011;28;20472;-47
2023/02/28 09:39:31;;;;;;;0.20;0.20;;;;;;;3.44;64.22;101380.22;5072173;28;20454;-47
2023/02/28 09:41:58;;;;;;;0.40;0.30;;;;;;;3.23;63.29;101383.34;5072188;28;20453;-47
2023/02/28 09:44:45;;;;;;;4.47;1.37;;;;;;;3.22;61.80;101382.44;5072232;28;20818;-47
2023/02/28 09:47:18;;;;;;;3.10;0.83;;;;;;;3.35;62.59;101388.81;5071679;28;20857;-47
2023/02/28 09:49:47;;;;;;;0.70;0.70;;;;;;;3.00;62.38;101389.88;5054224;28;20450;-47
2023/02/28 09:52:19;;;;;;;0.30;0.20;;;;;;;3.07;63.15;101384.78;5071982;28;20541;-47
2023/02/28 09:54:45;;;;;;;0.30;0.30;;;;;;;3.41;62.63;101395.91;5072150;28;20469;-46
2023/02/28 09:57:38;;;;;;;1.23;1.13;;;;;;;3.60;62.83;101384.00;5071892;28;20466;-48
2023/02/28 10:00:16;;;;;;;1.43;1.33;;;;;;;3.63;60.43;101391.94;5071989;28;20446;-47
2023/02/28 10:03:23;;;;;;;0.53;0.43;;;;;;;3.47;60.49;101377.66;5072331;28;20449;-47
2023/02/28 10:06:08;;;;;;;0.73;0.73;;;;;;;3.48;59.89;101376.78;5042980;28;20466;-47
2023/02/28 10:08:55;;;;;;;0.93;0.57;;;;;;;3.69;60.04;101371.00;5059139;28;20489;-48
2023/02/28 10:11:23;;;;;;;0.40;0.40;;;;;;;3.55;59.16;101387.41;5071684;28;20957;-47
2023/02/28 10:14:02;;;;;;;0.47;0.30;;;;;;;3.80;58.85;101388.72;5072168;28;20456;-47
2023/02/28 10:16:37;;;;;;;0.50;0.40;;;;;;;3.63;57.02;101384.06;5071826;28;20470;-47
2023/02/28 10:19:11;;;;;;;1.03;0.40;;;;;;;3.75;58.42;101387.78;5071569;28;20475;-47
2023/02/28 10:21:57;;;;;;;0.30;0.30;;;;;;;3.97;57.31;101383.72;5072010;28;20447;-47
2023/02/28 10:24:34;;;;;;;2.03;1.97;;;;;;;3.67;57.11;101386.75;5071958;28;20465;-47
2023/02/28 10:27:13;;;;;;;0.67;0.67;;;;;;;3.62;56.97;101382.28;5071660;28;20465;-47
2023/02/28 10:29:44;;;;;;;0.50;0.50;;;;;;;4.02;57.75;101384.72;5073007;28;21010;-47
2023/02/28 10:32:15;;;;;;;0.70;0.70;;;;;;;4.19;56.48;101381.44;5075649;28;20450;-47
2023/02/28 10:34:42;;;;;;;0.40;0.40;;;;;;;4.19;55.55;101384.06;5075815;28;20449;-47
2023/02/28 10:37:13;;;;;;;28.20;0.60;;;;;;;4.11;54.66;101373.44;5075257;28;20476;-47
2023/02/28 10:39:41;;;;;;;1.27;1.17;;;;;;;3.91;54.72;101393.28;5075954;28;20931;-47
2023/02/28 10:42:26;;;;;;;0.43;0.43;;;;;;;3.91;55.00;101375.75;5075049;28;20460;-47
2023/02/28 10:45:13;;;;;;;2.20;0.80;;;;;;;3.68;55.40;101392.88;5075075;28;20492;-47
2023/02/28 10:47:52;;;;;;;0.60;0.40;;;;;;;3.70;56.08;101381.56;5075784;28;20489;-47
2023/02/28 10:50:29;;;;;;;4.53;1.33;;;;;;;3.56;55.58;101396.19;5057410;28;20919;-47
2023/02/28 10:53:08;;;;;;;0.30;0.30;;;;;;;3.73;56.15;101386.88;5074902;28;20954;-47
2023/02/28 10:55:35;;;;;;;0.80;0.80;;;;;;;3.75;56.11;101379.88;5074988;28;20469;-47
2023/02/28 10:58:01;;;;;;;0.93;0.57;;;;;;;3.89;56.72;101379.22;5074967;28;20460;-47
2023/02/28 11:00:34;;;;;;;1.37;1.00;;;;;;;4.17;56.11;101376.16;5074973;28;20446;-47
2023/02/28 11:03:00;;;;;;;0.63;0.63;;;;;;;4.38;56.42;101365.03;5074780;28;20507;-46
2023/02/28 11:05:32;;;;;;;4.33;0.50;;;;;;;4.35;55.52;101365.91;5074651;28;20553;-49
2023/02/28 11:08:17;;;;;;;0.90;0.90;;;;;;;3.84;55.45;101371.28;5074853;28;20507;-47
2023/02/28 11:10:54;;;;;;;0.90;0.87;;;;;;;4.05;56.14;101363.72;5074904;28;20588;-46
2023/02/28 11:13:24;;;;;;;0.73;0.73;;;;;;;4.49;56.31;101360.81;5074461;28;21025;-47
2023/02/28 11:15:54;;;;;;;0.80;0.80;;;;;;;4.24;55.98;101362.22;5074750;28;20484;-49
2023/02/28 11:18:46;;;;;;;0.40;0.40;;;;;;;4.04;56.97;101361.06;5061864;28;20442;-47
2023/02/28 11:21:20;;;;;;;0.77;0.73;;;;;;;3.85;56.47;101352.91;5074770;28;20447;-46
2023/02/28 11:23:50;;;;;;;1.80;1.03;;;;;;;4.22;56.26;101356.06;5074537;28;20449;-46
2023/02/28 11:26:40;;;;;;;0.30;0.20;;;;;;;4.32;55.72;101341.28;5074626;28;20469;-47
2023/02/28 11:29:11;;;;;;;0.60;0.50;;;;;;;4.05;55.33;101376.84;5074386;28;21020;-47
2023/02/28 11:31:38;;;;;;;13.90;0.93;;;;;;;4.00;56.71;101357.50;5074635;28;20450;-47
2023/02/28 11:34:24;;;;;;;0.63;0.60;;;;;;;4.02;55.17;101357.53;5074012;28;20882;-47
2023/02/28 11:36:52;;;;;;;0.67;0.67;;;;;;;4.25;54.76;101348.22;5074241;28;20927;-48
2023/02/28 11:39:19;;;;;;;1.43;1.03;;;;;;;4.36;54.09;101343.09;5074275;28;20442;-48
2023/02/28 11:41:54;;;;;;;1.07;1.07;;;;;;;4.41;53.96;101344.06;5073320;28;20446;-47
2023/02/28 11:44:41;;;;;;;1.27;0.77;;;;;;;4.35;52.75;101333.44;5074261;28;20533;-47
2023/02/28 11:47:17;;;;;;;0.80;0.80;;;;;;;4.51;53.31;101342.41;5073752;28;20825;-47